Gulf, North Carolina
Current Conditions -  °F | °C
As of 8:35 PM on Thursday 27 Nov 2014 (Local Time) from KTTA Reporting Station
Clear Clear  
Wind Chill: 37°   Ceiling: Unl
Heat Index: 41°   Visibility: 10mi
Dew Point: 28°   Wind: 6mph
Humidity: 61%   Direction: 320°NW
Pressure: 30.23"   Gusts: NA
Location:  35.56°N, 79.28°W
Report Text: KTTA 280135Z AUTO 32005KT 10SM CLR 05/M02 A3023 RMK AO2 T00481021
Loading
Personal Weather Stations






























Interactive Weather Map New forecast layout! Learn more

10-Day Weather Forecast

Advertisements
Track Severe Weather on mobile